KOMA/OMA METAR and TAF weather

Enter ICAO airport designator
Station Type Date Time Source
KOMA METAR 2020/06/06 01:52 UTC NOAA

KOMA 060152Z 09011KT 10SM FEW065 SCT100 SCT250 28/19 A2991 RMK AO2 SLP117 T02780189 $


Station Type Date Time Source
KOMA Decoded METAR 2020/06/06 01:52 UTC NOAA

OMAHA EPPLEY AIRFIELD, NE, United States (KOMA) 41-18N 095-54W 312M
Jun 05, 2020 - 09:52 PM EDT / 2020.06.06 0152 UTC
Wind: from the E (090 degrees) at 13 MPH (11 KT):0
Visibility: 10 mile(s):0
Sky conditions: partly cloudy
Temperature: 82.0 F (27.8 C)
Dew Point: 66.0 F (18.9 C)
Relative Humidity: 58%
Pressure (altimeter): 29.91 in. Hg (1012 hPa)
ob: KOMA 060152Z 09011KT 10SM FEW065 SCT100 SCT250 28/19 A2991 RMK AO2 SLP117 T02780189
cycle: 2

Station Type Date Time Source
KOMA TAF 2020/06/05 18:24 UTC NOAA

TAF KOMA 051722Z 0518/0618 05007KT P6SM FEW200
FM060200 08008KT P6SM SKC

Example: see airport list